Time;durP1;ratioP1;P1;durP2;ratioP2;P2;SDS_P1;SDS_P2;PMS_P1;PMS_P2;Temp;Humidity;BMP_temperature;BMP_pressure;BME280_temperature;BME280_humidity;BME280_pressure;Samples;Min_cycle;Max_cycle;Signal;HPM_P1;HPM_P2
2023/06/26 00:01:31;;;;;;;19.40;11.20;;;;;;;17.54;100.00;100997.03;5032933;28;20064;-65
2023/06/26 00:03:59;;;;;;;13.98;11.15;;;;;;;17.55;100.00;100992.47;5032634;28;20045;-66
2023/06/26 00:06:26;;;;;;;13.35;10.25;;;;;;;17.52;100.00;100993.69;5032375;28;20484;-66
2023/06/26 00:08:54;;;;;;;18.90;11.30;;;;;;;17.58;100.00;101000.19;5032077;28;20490;-66
2023/06/26 00:11:22;;;;;;;18.08;11.27;;;;;;;17.49;100.00;100994.09;5032181;28;20096;-67
2023/06/26 00:13:48;;;;;;;15.48;10.98;;;;;;;17.46;100.00;100985.50;5032088;28;20195;-66
2023/06/26 00:16:15;;;;;;;16.48;11.05;;;;;;;17.52;100.00;100995.56;5032132;28;20045;-67
2023/06/26 00:18:41;;;;;;;16.25;11.90;;;;;;;17.47;100.00;100990.72;5032280;28;20096;-68
2023/06/26 00:21:08;;;;;;;14.27;10.52;;;;;;;17.45;100.00;100992.81;5031891;28;20049;-66
2023/06/26 00:23:36;;;;;;;15.20;11.40;;;;;;;17.44;100.00;100998.41;5026109;28;20560;-66
2023/06/26 00:26:05;;;;;;;18.85;11.95;;;;;;;17.39;100.00;100990.88;5031689;28;20045;-67
2023/06/26 00:28:32;;;;;;;13.75;10.90;;;;;;;17.36;100.00;100989.41;5031503;28;20045;-65
2023/06/26 00:30:59;;;;;;;15.40;11.38;;;;;;;17.38;100.00;100991.09;5032351;28;20464;-65
2023/06/26 00:33:25;;;;;;;13.30;10.77;;;;;;;17.36;100.00;100986.69;5032065;28;20045;-66
2023/06/26 00:35:52;;;;;;;14.05;10.98;;;;;;;17.37;100.00;100984.81;5031680;28;20115;-65
2023/06/26 00:38:18;;;;;;;14.27;11.57;;;;;;;17.33;100.00;100988.94;5031600;28;20069;-66
2023/06/26 00:40:45;;;;;;;15.82;10.65;;;;;;;17.27;100.00;100984.31;5031925;28;20144;-65
2023/06/26 00:43:11;;;;;;;14.07;11.30;;;;;;;17.24;100.00;100982.00;5031734;28;20417;-67
2023/06/26 00:45:38;;;;;;;14.40;11.35;;;;;;;17.18;100.00;100977.38;5031805;28;20041;-65
2023/06/26 00:48:11;;;;;;;15.52;10.52;;;;;;;17.19;100.00;100976.31;5031441;28;20041;-66
2023/06/26 00:50:39;;;;;;;20.58;11.32;;;;;;;17.19;100.00;100976.31;5031550;28;20068;-67
2023/06/26 00:53:06;;;;;;;13.48;11.32;;;;;;;17.20;100.00;100978.00;5031268;28;20099;-67
2023/06/26 00:55:32;;;;;;;17.50;11.73;;;;;;;17.20;100.00;100975.28;5030932;28;20461;-65
2023/06/26 00:57:59;;;;;;;13.23;11.02;;;;;;;17.17;100.00;100970.28;5031727;28;20405;-66
2023/06/26 01:00:26;;;;;;;14.13;11.52;;;;;;;17.14;100.00;100969.63;5031449;28;20045;-65
2023/06/26 01:02:53;;;;;;;14.77;10.90;;;;;;;17.14;100.00;100969.63;5031260;28;20122;-66
2023/06/26 01:09:00;;;;;;;15.25;11.52;;;;;;;17.12;100.00;100962.72;5030683;28;20091;-65
2023/06/26 01:11:27;;;;;;;19.70;11.52;;;;;;;17.09;100.00;100961.25;5031018;28;20057;-66
2023/06/26 01:13:55;;;;;;;15.80;10.90;;;;;;;17.10;100.00;100957.50;5030793;28;20041;-66
2023/06/26 01:16:24;;;;;;;17.52;11.20;;;;;;;17.08;100.00;100964.16;5030787;28;20049;-65
2023/06/26 01:18:51;;;;;;;14.52;10.77;;;;;;;17.06;100.00;100960.78;5030820;28;20084;-66
2023/06/26 01:21:18;;;;;;;15.50;11.27;;;;;;;16.96;100.00;100955.75;5030992;28;20415;-67
2023/06/26 01:24:05;;;;;;;21.27;10.25;;;;;;;16.98;100.00;100961.78;5030748;28;20053;-64
2023/06/26 01:26:35;;;;;;;13.40;10.40;;;;;;;16.99;100.00;100955.34;5030460;28;20041;-65
2023/06/26 01:29:06;;;;;;;15.75;11.57;;;;;;;16.93;100.00;100953.41;5030443;28;20483;-64
2023/06/26 01:31:34;;;;;;;12.48;10.55;;;;;;;17.01;100.00;100947.84;5030388;28;20420;-66
2023/06/26 01:34:01;;;;;;;11.75;10.05;;;;;;;16.92;100.00;100946.34;5030964;28;20055;-66
2023/06/26 01:36:27;;;;;;;16.60;11.25;;;;;;;16.77;100.00;100945.56;5030867;28;20045;-67
2023/06/26 01:38:54;;;;;;;16.52;11.52;;;;;;;16.80;100.00;100939.75;5030723;28;20103;-66
2023/06/26 01:41:20;;;;;;;14.77;10.60;;;;;;;16.80;100.00;100934.34;5030580;28;20227;-67
2023/06/26 01:43:52;;;;;;;17.65;11.77;;;;;;;16.77;100.00;100935.56;5030504;28;20473;-66
2023/06/26 01:46:24;;;;;;;14.90;11.63;;;;;;;16.77;100.00;100940.16;5030206;28;20464;-66
2023/06/26 01:48:51;;;;;;;17.25;12.23;;;;;;;16.77;100.00;100940.16;5030472;28;20079;-66
2023/06/26 01:51:22;;;;;;;18.15;12.43;;;;;;;16.80;100.00;100937.06;5030428;28;20390;-67
2023/06/26 01:53:53;;;;;;;15.23;12.10;;;;;;;16.81;100.00;100936.84;5030126;28;20099;-64
2023/06/26 01:56:23;;;;;;;14.98;11.93;;;;;;;16.84;100.00;100938.31;5030370;28;20045;-64
2023/06/26 01:58:54;;;;;;;19.50;11.70;;;;;;;16.79;100.00;100936.22;4990994;28;20070;-66
2023/06/26 02:01:21;;;;;;;16.65;11.80;;;;;;;16.81;100.00;100936.84;4991066;28;20784;-66
2023/06/26 02:03:48;;;;;;;15.63;12.23;;;;;;;16.80;100.00;100931.63;4990906;28;20459;-67
2023/06/26 02:06:15;;;;;;;17.38;12.82;;;;;;;16.72;100.00;100931.78;4991131;28;20108;-67
2023/06/26 02:08:41;;;;;;;19.08;12.10;;;;;;;16.87;100.00;100935.22;4990671;28;20050;-65
2023/06/26 02:11:08;;;;;;;19.98;12.65;;;;;;;16.85;100.00;100926.44;4990576;28;20077;-65
2023/06/26 02:13:34;;;;;;;19.50;11.98;;;;;;;16.75;100.00;100923.25;4990859;28;20050;-67
2023/06/26 02:16:01;;;;;;;21.10;12.63;;;;;;;16.63;100.00;100929.19;4990829;28;20069;-60
2023/06/26 02:18:27;;;;;;;16.60;12.60;;;;;;;16.65;100.00;100927.13;4991359;28;20077;-66
2023/06/26 02:20:54;;;;;;;18.27;12.73;;;;;;;16.72;100.00;100931.78;4994801;28;20065;-66
2023/06/26 02:23:20;;;;;;;17.15;12.70;;;;;;;16.62;100.00;100926.69;4994763;28;20391;-67
2023/06/26 02:25:46;;;;;;;21.40;12.77;;;;;;;16.58;100.00;100923.53;4994560;28;20077;-66
2023/06/26 02:28:13;;;;;;;17.45;12.88;;;;;;;16.57;100.00;100927.25;4994835;28;20061;-67
2023/06/26 02:30:39;;;;;;;17.85;13.30;;;;;;;16.55;100.00;100932.06;4994754;28;20097;-66
2023/06/26 02:33:07;;;;;;;18.02;13.13;;;;;;;16.51;100.00;100932.66;4993449;28;20047;-66
2023/06/26 02:35:33;;;;;;;18.35;14.10;;;;;;;16.50;100.00;100923.66;4994566;28;20050;-66
2023/06/26 02:38:00;;;;;;;15.02;12.82;;;;;;;16.50;100.00;100926.38;4994828;28;20491;-67
2023/06/26 02:40:26;;;;;;;15.20;13.13;;;;;;;16.45;100.00;100926.09;4994598;28;20046;-66
2023/06/26 02:42:53;;;;;;;20.27;13.80;;;;;;;16.46;100.00;100927.75;4994272;28;20046;-65
2023/06/26 02:45:19;;;;;;;15.57;13.27;;;;;;;16.50;100.00;100923.66;4994662;28;20042;-67
2023/06/26 02:47:46;;;;;;;16.15;13.63;;;;;;;16.45;100.00;100931.50;4994322;28;20109;-65
2023/06/26 02:50:12;;;;;;;19.85;14.77;;;;;;;16.40;100.00;100923.97;4994189;28;20046;-65
2023/06/26 02:52:39;;;;;;;22.55;13.52;;;;;;;16.30;100.00;100915.34;4994418;28;20495;-66
2023/06/26 02:55:05;;;;;;;18.85;13.40;;;;;;;16.30;100.00;100914.50;4994230;28;20046;-67
2023/06/26 02:57:32;;;;;;;20.00;14.55;;;;;;;16.42;100.00;100918.34;5016686;28;20050;-66
2023/06/26 02:59:59;;;;;;;21.20;14.32;;;;;;;16.38;100.00;100919.78;5033841;28;20454;-66
2023/06/26 03:02:25;;;;;;;16.65;13.65;;;;;;;16.33;100.00;100909.53;5033398;28;20096;-67
2023/06/26 03:04:52;;;;;;;17.40;14.52;;;;;;;16.29;100.00;100915.50;5033239;28;20398;-65
2023/06/26 03:07:19;;;;;;;18.17;14.15;;;;;;;16.34;100.00;100913.06;5034196;28;20187;-66
2023/06/26 03:09:46;;;;;;;16.85;14.27;;;;;;;16.30;100.00;100901.78;5033598;28;20061;-65
2023/06/26 03:12:12;;;;;;;21.05;16.05;;;;;;;16.23;100.00;100905.44;5033793;28;20045;-65
2023/06/26 03:14:39;;;;;;;18.42;14.45;;;;;;;16.29;100.00;100910.94;5033708;28;20111;-66
2023/06/26 03:17:07;;;;;;;18.70;14.35;;;;;;;16.31;100.00;100895.34;5033126;28;20052;-64
2023/06/26 03:19:33;;;;;;;18.88;14.43;;;;;;;16.25;100.00;100898.81;5033336;28;20101;-65
2023/06/26 03:22:00;;;;;;;18.25;14.10;;;;;;;16.29;100.00;100904.69;5033363;28;20123;-68
2023/06/26 03:24:26;;;;;;;17.08;14.13;;;;;;;16.30;100.00;100903.66;5033471;28;20092;-66
2023/06/26 03:26:53;;;;;;;21.27;14.98;;;;;;;16.36;100.00;100892.88;5033135;28;20065;-65
2023/06/26 03:29:20;;;;;;;20.52;14.75;;;;;;;16.31;100.00;100895.34;5032883;28;20041;-66
2023/06/26 03:31:46;;;;;;;19.02;14.23;;;;;;;16.34;100.00;100896.84;5033638;28;20045;-65
2023/06/26 03:34:13;;;;;;;17.98;13.90;;;;;;;16.44;100.00;100900.06;5033580;28;20095;-67
2023/06/26 03:36:39;;;;;;;16.10;13.48;;;;;;;16.51;100.00;100889.31;5033221;28;20053;-66
2023/06/26 03:39:06;;;;;;;17.90;13.75;;;;;;;16.45;100.00;100890.06;5032813;28;20041;-68
2023/06/26 03:41:32;;;;;;;23.88;14.32;;;;;;;16.39;100.00;100883.53;5033595;28;20053;-67
2023/06/26 03:44:00;;;;;;;23.73;14.45;;;;;;;16.37;100.00;100881.03;5033330;28;20080;-66
2023/06/26 03:46:27;;;;;;;17.17;13.70;;;;;;;16.51;100.00;100882.03;5033710;28;20045;-69
2023/06/26 03:48:53;;;;;;;17.45;14.38;;;;;;;16.61;100.00;100885.22;5033390;28;20115;-66
2023/06/26 03:51:20;;;;;;;17.42;13.73;;;;;;;16.51;100.00;100887.44;5032880;28;20045;-67
2023/06/26 03:53:46;;;;;;;20.92;13.65;;;;;;;16.48;100.00;100882.38;5032841;28;20589;-65
2023/06/26 03:56:13;;;;;;;18.17;13.52;;;;;;;16.46;100.00;100884.44;5032987;28;20050;-66
2023/06/26 03:58:40;;;;;;;18.05;14.10;;;;;;;16.51;100.00;100879.31;5032447;28;20046;-66
2023/06/26 04:01:07;;;;;;;16.55;13.52;;;;;;;16.48;100.00;100887.78;5032851;28;20489;-66
2023/06/26 04:03:33;;;;;;;19.95;13.30;;;;;;;16.53;100.00;100896.19;5033231;28;20045;-67
2023/06/26 04:06:00;;;;;;;17.70;13.40;;;;;;;16.62;100.00;100886.91;5032965;28;20401;-65
2023/06/26 04:08:27;;;;;;;24.88;13.57;;;;;;;16.65;100.00;100883.81;5032106;28;20095;-66
2023/06/26 04:10:55;;;;;;;16.23;12.55;;;;;;;16.72;100.00;100886.56;5031830;28;20398;-65
2023/06/26 04:13:21;;;;;;;16.58;13.82;;;;;;;16.69;100.00;100888.81;5032383;28;20053;-66
2023/06/26 04:15:48;;;;;;;17.25;13.32;;;;;;;16.73;100.00;100890.09;5032075;28;20065;-66
2023/06/26 04:18:14;;;;;;;15.57;12.88;;;;;;;16.75;100.00;100882.59;5031737;28;20065;-67
2023/06/26 04:21:05;;;;;;;19.13;12.57;;;;;;;16.80;100.00;100872.03;5032132;28;20061;-66
2023/06/26 04:23:32;;;;;;;15.10;12.25;;;;;;;16.80;100.00;100874.72;5031945;28;20508;-65
2023/06/26 04:25:58;;;;;;;16.90;12.35;;;;;;;16.86;100.00;100873.94;5032373;28;20049;-66
2023/06/26 04:28:25;;;;;;;19.20;12.55;;;;;;;16.94;100.00;100871.06;5031703;28;20045;-65
2023/06/26 04:30:51;;;;;;;16.60;13.10;;;;;;;16.97;100.00;100872.56;5031955;28;20054;-66
2023/06/26 04:33:18;;;;;;;19.60;13.15;;;;;;;16.96;100.00;100876.31;5031788;28;20045;-66
2023/06/26 04:35:48;;;;;;;16.70;12.60;;;;;;;16.95;100.00;100872.75;5031951;28;20228;-65
2023/06/26 04:38:15;;;;;;;17.10;12.73;;;;;;;16.90;100.00;100877.94;5031757;28;20063;-66
2023/06/26 04:40:42;;;;;;;33.17;11.90;;;;;;;16.95;100.00;100872.75;5031215;28;20562;-65
2023/06/26 04:43:08;;;;;;;16.63;13.00;;;;;;;17.00;100.00;100873.00;5030725;28;20049;-65
2023/06/26 04:45:35;;;;;;;15.40;12.40;;;;;;;16.93;100.00;100864.00;5031448;28;20489;-64
2023/06/26 04:48:02;;;;;;;16.38;11.43;;;;;;;16.98;100.00;100869.63;5030708;28;20052;-62
2023/06/26 04:50:30;;;;;;;18.38;11.93;;;;;;;16.93;100.00;100868.56;5031848;28;20069;-67
2023/06/26 04:52:56;;;;;;;18.35;12.00;;;;;;;16.93;100.00;100868.56;5035412;28;20061;-65
2023/06/26 04:55:26;;;;;;;16.38;11.77;;;;;;;17.04;100.00;100865.31;5031322;28;20464;-65
2023/06/26 04:57:52;;;;;;;18.20;12.73;;;;;;;17.08;100.00;100866.56;5031270;28;20053;-64
2023/06/26 05:00:19;;;;;;;16.15;12.93;;;;;;;17.20;100.00;100865.00;5031021;28;20046;-66
2023/06/26 05:02:46;;;;;;;16.65;11.80;;;;;;;17.37;100.00;100865.50;5031104;28;20095;-65
2023/06/26 05:05:13;;;;;;;16.63;12.02;;;;;;;17.49;100.00;100858.47;5031018;28;20614;-66
2023/06/26 05:07:42;;;;;;;15.57;12.27;;;;;;;17.58;100.00;100864.56;5031430;28;20049;-66
2023/06/26 05:10:08;;;;;;;21.58;11.90;;;;;;;17.67;100.00;100862.50;5031370;28;20068;-65
2023/06/26 05:12:35;;;;;;;14.60;10.90;;;;;;;17.76;100.00;100864.81;5031137;28;20095;-66
2023/06/26 05:15:02;;;;;;;18.25;12.23;;;;;;;17.77;100.00;100871.09;5031011;28;20041;-60
2023/06/26 05:17:29;;;;;;;20.23;11.65;;;;;;;17.81;100.00;100862.31;5031470;28;20417;-66
2023/06/26 05:19:55;;;;;;;19.27;10.85;;;;;;;17.81;100.00;100861.50;5030658;28;20049;-66
2023/06/26 05:22:23;;;;;;;20.00;11.10;;;;;;;17.88;100.00;100859.63;5030861;28;20049;-67
2023/06/26 05:24:54;;;;;;;13.73;10.70;;;;;;;17.87;100.00;100859.84;5030988;28;20049;-66
2023/06/26 05:27:21;;;;;;;14.98;10.88;;;;;;;17.92;100.00;100860.88;5030381;28;20045;-66
2023/06/26 05:29:49;;;;;;;16.00;11.27;;;;;;;17.87;100.00;100855.25;5030195;28;20551;-66
2023/06/26 05:32:19;;;;;;;14.85;10.73;;;;;;;17.78;100.00;100851.03;5030431;28;20049;-66
2023/06/26 05:34:51;;;;;;;13.20;10.38;;;;;;;17.85;100.00;100850.00;5029514;28;20505;-64
2023/06/26 05:37:21;;;;;;;13.38;11.15;;;;;;;17.75;100.00;100860.44;5030784;28;20045;-67
2023/06/26 05:39:48;;;;;;;16.23;10.60;;;;;;;17.69;100.00;100853.13;5030714;28;20059;-65
2023/06/26 05:42:15;;;;;;;13.35;10.63;;;;;;;17.66;100.00;100844.56;5030439;28;20045;-66
2023/06/26 05:44:42;;;;;;;20.38;10.27;;;;;;;17.70;100.00;100838.50;5029798;28;20053;-65
2023/06/26 05:47:09;;;;;;;15.98;10.48;;;;;;;17.70;100.00;100841.22;5029932;28;20076;-65
2023/06/26 05:49:35;;;;;;;16.25;10.57;;;;;;;17.69;100.00;100836.00;5030559;28;20041;-65
2023/06/26 05:52:02;;;;;;;15.45;10.75;;;;;;;17.76;100.00;100831.44;5030398;28;20573;-64
2023/06/26 05:54:29;;;;;;;16.88;9.68;;;;;;;17.84;100.00;100833.94;5030574;28;20103;-65
2023/06/26 05:56:59;;;;;;;12.38;8.57;;;;;;;17.95;100.00;100840.63;5030420;28;20044;-65
2023/06/26 05:59:26;;;;;;;13.25;9.50;;;;;;;17.98;100.00;100830.22;5030353;28;20045;-68
2023/06/26 06:01:53;;;;;;;12.27;9.57;;;;;;;17.97;100.00;100823.13;5030319;28;20103;-66
2023/06/26 06:04:20;;;;;;;11.52;9.32;;;;;;;18.00;100.00;100822.69;5029713;28;20117;-67
2023/06/26 06:06:47;;;;;;;10.13;8.95;;;;;;;18.15;100.00;100822.53;5029339;28;20045;-65
2023/06/26 06:09:13;;;;;;;17.40;10.00;;;;;;;18.16;100.00;100820.66;5030062;28;20049;-65
2023/06/26 06:11:40;;;;;;;13.95;9.05;;;;;;;18.22;100.00;100820.66;5029387;28;20054;-67
2023/06/26 06:14:07;;;;;;;11.43;8.60;;;;;;;18.30;100.00;100811.47;5028554;28;20198;-65
2023/06/26 06:16:33;;;;;;;10.40;8.98;;;;;;;18.37;100.00;100817.72;5031674;28;20115;-65
2023/06/26 06:19:00;;;;;;;17.25;9.18;;;;;;;18.47;100.00;100807.28;5031185;28;20091;-65
2023/06/26 06:21:26;;;;;;;13.60;9.55;;;;;;;18.48;100.00;100816.25;5031410;28;20100;-66
2023/06/26 06:23:53;;;;;;;15.18;8.40;;;;;;;18.58;100.00;100810.41;5031375;28;20053;-67
2023/06/26 06:26:20;;;;;;;11.50;8.68;;;;;;;18.65;100.00;100813.94;5030802;28;20045;-67
2023/06/26 06:28:46;;;;;;;19.02;9.30;;;;;;;18.75;100.00;100814.34;5031116;28;20049;-67
2023/06/26 06:31:13;;;;;;;11.60;8.77;;;;;;;18.76;100.00;100822.28;5030790;28;20095;-68
2023/06/26 06:33:39;;;;;;;13.63;9.48;;;;;;;18.86;100.00;100819.16;5029875;28;20480;-70
2023/06/26 06:36:06;;;;;;;11.07;8.50;;;;;;;18.89;100.00;100818.69;5028847;28;20054;-67
2023/06/26 06:38:32;;;;;;;11.75;8.48;;;;;;;19.01;100.00;100802.59;5030235;28;20071;-65
2023/06/26 06:40:59;;;;;;;13.32;8.60;;;;;;;19.11;100.00;100803.00;5030027;28;20119;-66
2023/06/26 06:43:26;;;;;;;10.90;8.00;;;;;;;19.24;100.00;100807.53;5030288;28;20060;-68
2023/06/26 06:45:52;;;;;;;13.18;8.95;;;;;;;19.34;100.00;100802.47;5030232;28;20049;-68
2023/06/26 06:48:19;;;;;;;12.07;8.27;;;;;;;19.43;100.00;100798.44;5030267;28;20061;-69
2023/06/26 06:50:45;;;;;;;13.65;8.25;;;;;;;19.60;100.00;100806.13;5030779;28;20115;-68
2023/06/26 06:53:12;;;;;;;11.45;7.93;;;;;;;19.71;100.00;100805.44;5030432;28;20087;-67
2023/06/26 06:55:38;;;;;;;11.38;8.55;;;;;;;19.84;100.00;100799.91;5030165;28;20073;-68
2023/06/26 06:58:05;;;;;;;11.15;7.93;;;;;;;19.89;100.00;100801.97;5030234;28;20041;-65
2023/06/26 07:00:32;;;;;;;12.75;7.88;;;;;;;20.13;100.00;100797.59;5029996;28;20045;-61
2023/06/26 07:03:00;;;;;;;8.27;7.40;;;;;;;20.29;100.00;100804.41;5030691;28;20402;-68
2023/06/26 07:05:27;;;;;;;10.43;7.00;;;;;;;20.39;100.00;100804.72;5032300;28;20409;-68
2023/06/26 07:07:53;;;;;;;12.02;7.20;;;;;;;20.53;100.00;100802.75;5033982;28;20555;-68
2023/06/26 07:10:20;;;;;;;8.60;6.90;;;;;;;20.70;100.00;100795.66;5033941;28;20084;-68
2023/06/26 07:12:46;;;;;;;13.75;7.65;;;;;;;20.89;100.00;100800.03;5033051;28;20053;-66
2023/06/26 07:15:13;;;;;;;10.10;7.10;;;;;;;21.23;100.00;100796.97;5033194;28;20082;-69
2023/06/26 07:17:40;;;;;;;11.20;7.10;;;;;;;21.51;100.00;100799.13;5033343;28;20045;-74
2023/06/26 07:20:08;;;;;;;13.75;6.97;;;;;;;21.91;100.00;100791.22;5032339;28;20054;-66
2023/06/26 07:22:38;;;;;;;10.55;7.07;;;;;;;22.37;100.00;100788.78;5033621;28;20383;-66
2023/06/26 07:25:08;;;;;;;8.90;6.30;;;;;;;22.67;100.00;100789.53;5034163;28;20068;-66
2023/06/26 07:27:39;;;;;;;9.38;6.45;;;;;;;23.15;100.00;100780.16;5033501;28;20048;-69
2023/06/26 07:30:10;;;;;;;10.33;6.93;;;;;;;23.33;100.00;100776.44;5033273;28;20049;-69
2023/06/26 07:32:37;;;;;;;9.05;6.20;;;;;;;23.41;92.02;100769.72;5033721;28;20103;-66
2023/06/26 07:35:05;;;;;;;10.05;6.28;;;;;;;23.57;91.88;100776.31;5033279;28;20087;-67
2023/06/26 07:37:31;;;;;;;9.30;6.10;;;;;;;24.09;92.68;100773.41;5033491;28;20045;-68
2023/06/26 07:39:58;;;;;;;12.52;6.35;;;;;;;24.27;85.08;100775.91;5033700;28;20096;-68
2023/06/26 07:42:24;;;;;;;7.25;6.22;;;;;;;24.47;88.00;100769.91;5033362;28;20073;-69
2023/06/26 07:44:51;;;;;;;9.20;5.63;;;;;;;25.03;79.46;100764.41;5033081;28;20052;-68
2023/06/26 07:47:17;;;;;;;5.65;5.05;;;;;;;25.11;77.81;100767.53;5033082;28;20489;-68
2023/06/26 07:49:44;;;;;;;10.25;5.82;;;;;;;25.26;74.97;100766.88;5033046;28;20128;-68
2023/06/26 07:52:11;;;;;;;8.50;5.70;;;;;;;25.70;71.67;100771.47;5032901;28;20058;-68
2023/06/26 07:54:37;;;;;;;6.18;5.00;;;;;;;25.87;70.71;100763.94;5033186;28;20478;-67
2023/06/26 07:57:06;;;;;;;9.90;5.25;;;;;;;26.16;68.72;100758.13;5032410;28;20489;-67
2023/06/26 07:59:33;;;;;;;9.52;5.10;;;;;;;26.24;65.28;100755.75;5032854;28;20095;-68
2023/06/26 08:02:01;;;;;;;7.45;5.20;;;;;;;26.39;63.53;100755.00;5033090;28;20481;-67
2023/06/26 08:04:31;;;;;;;8.95;5.20;;;;;;;26.29;62.46;100753.03;5032366;28;20060;-69
2023/06/26 08:06:59;;;;;;;9.15;5.47;;;;;;;26.37;63.22;100746.19;5032717;28;20448;-68
2023/06/26 08:09:28;;;;;;;8.80;4.95;;;;;;;26.76;63.63;100748.66;5032372;28;20053;-68
2023/06/26 08:11:55;;;;;;;7.13;4.88;;;;;;;27.07;60.52;100746.84;5032205;28;20045;-69
2023/06/26 08:14:23;;;;;;;8.10;5.13;;;;;;;26.98;57.09;100746.53;5033178;28;20053;-67
2023/06/26 08:16:49;;;;;;;9.82;5.28;;;;;;;26.99;59.95;100741.84;5033047;28;20053;-68
2023/06/26 08:19:16;;;;;;;6.43;4.93;;;;;;;27.62;60.82;100736.25;5032525;28;20053;-71
2023/06/26 08:21:44;;;;;;;7.00;4.65;;;;;;;27.90;58.68;100741.25;5032484;28;20528;-67
2023/06/26 08:24:21;;;;;;;5.90;4.85;;;;;;;27.88;55.93;100740.69;5032206;28;20520;-68
2023/06/26 08:26:48;;;;;;;10.88;5.18;;;;;;;28.18;53.57;100744.56;5032151;28;20103;-68
2023/06/26 08:29:14;;;;;;;6.38;4.88;;;;;;;27.92;54.35;100738.22;5031479;28;20398;-69
2023/06/26 08:31:42;;;;;;;8.52;5.18;;;;;;;28.00;54.87;100736.81;5031352;28;20140;-68
2023/06/26 08:34:08;;;;;;;5.80;5.10;;;;;;;27.89;51.28;100731.31;5031419;28;20046;-67
2023/06/26 08:36:35;;;;;;;8.73;5.20;;;;;;;27.97;51.39;100727.16;5031704;28;20045;-68
2023/06/26 08:39:02;;;;;;;7.72;4.53;;;;;;;28.08;48.71;100730.78;5031529;28;20473;-68
2023/06/26 08:41:29;;;;;;;8.65;4.57;;;;;;;28.07;51.18;100724.41;5031137;28;20473;-68
2023/06/26 08:43:56;;;;;;;6.80;4.30;;;;;;;28.07;48.75;100721.66;5029651;28;20067;-67
2023/06/26 08:46:22;;;;;;;4.68;4.20;;;;;;;28.25;48.57;100727.69;5029629;28;20103;-69
2023/06/26 08:48:55;;;;;;;4.78;3.72;;;;;;;27.93;46.22;100721.38;5030911;28;20121;-66
2023/06/26 08:51:28;;;;;;;6.75;4.30;;;;;;;28.35;48.72;100727.66;5031070;28;20046;-70
2023/06/26 08:54:02;;;;;;;6.00;3.80;;;;;;;28.36;46.29;100719.13;5031540;28;20128;-67
2023/06/26 08:56:33;;;;;;;7.53;4.45;;;;;;;28.89;47.15;100716.75;5035064;28;20052;-66
2023/06/26 08:59:01;;;;;;;5.00;3.97;;;;;;;29.08;45.95;100716.13;5030270;28;20168;-67
2023/06/26 09:01:28;;;;;;;4.95;4.28;;;;;;;29.21;45.21;100706.38;5029932;28;20051;-69
2023/06/26 09:03:54;;;;;;;4.65;3.85;;;;;;;29.17;44.79;100706.13;5030746;28;20128;-67
2023/06/26 09:06:21;;;;;;;6.18;4.20;;;;;;;29.57;44.46;100704.25;5030401;28;20121;-69
2023/06/26 09:08:48;;;;;;;4.85;4.43;;;;;;;29.83;43.69;100702.06;5030698;28;20053;-68
2023/06/26 09:11:14;;;;;;;3.72;3.38;;;;;;;29.65;41.29;100703.63;5030338;28;20489;-68
2023/06/26 09:13:42;;;;;;;7.43;3.70;;;;;;;29.97;41.94;100705.00;5031887;28;20049;-69
2023/06/26 09:16:09;;;;;;;4.65;3.80;;;;;;;30.19;42.25;100694.31;5031649;28;20046;-67
2023/06/26 09:18:36;;;;;;;5.90;3.88;;;;;;;30.31;42.59;100691.94;5029907;28;20517;-67
2023/06/26 09:21:09;;;;;;;5.57;3.80;;;;;;;30.50;40.18;100689.25;5031107;28;20481;-61
2023/06/26 09:23:36;;;;;;;4.97;3.60;;;;;;;30.86;40.37;100686.03;5031058;28;20539;-68
2023/06/26 09:26:04;;;;;;;5.00;3.15;;;;;;;30.89;39.37;100690.97;5031814;28;20559;-67
2023/06/26 09:28:35;;;;;;;4.18;3.78;;;;;;;31.03;38.58;100695.81;5029894;28;20049;-68
2023/06/26 09:31:05;;;;;;;5.25;3.80;;;;;;;31.06;40.40;100682.19;5029984;28;20041;-70
2023/06/26 09:33:38;;;;;;;6.38;4.00;;;;;;;31.10;40.60;100677.69;5030468;28;20044;-70
2023/06/26 09:36:12;;;;;;;7.15;3.67;;;;;;;31.12;38.64;100683.75;5030940;28;20056;-68
2023/06/26 09:38:38;;;;;;;4.60;3.20;;;;;;;31.51;38.54;100673.47;5030618;28;20493;-68
2023/06/26 09:41:05;;;;;;;5.97;3.70;;;;;;;31.45;38.97;100670.75;5030466;28;20084;-69
2023/06/26 09:43:31;;;;;;;4.07;3.67;;;;;;;31.46;37.35;100664.09;5031085;28;20068;-67
2023/06/26 09:46:00;;;;;;;4.25;3.40;;;;;;;31.82;36.63;100657.13;5030438;28;20489;-66
2023/06/26 09:48:28;;;;;;;5.45;3.58;;;;;;;32.05;37.06;100666.44;5030872;28;20049;-65
2023/06/26 09:50:55;;;;;;;5.88;3.63;;;;;;;32.28;37.41;100667.41;5030419;28;20046;-67
2023/06/26 09:53:42;;;;;;;5.13;3.90;;;;;;;32.28;36.73;100665.44;5030338;28;20049;-69
2023/06/26 09:56:17;;;;;;;3.67;3.38;;;;;;;32.49;36.96;100660.31;5030510;28;20046;-68
2023/06/26 09:58:44;;;;;;;7.18;3.65;;;;;;;32.66;36.80;100657.72;5030313;28;20049;-66
2023/06/26 10:01:10;;;;;;;6.30;3.50;;;;;;;32.45;36.66;100645.38;5030190;28;20116;-68
2023/06/26 10:03:37;;;;;;;3.63;3.25;;;;;;;33.04;36.82;100649.13;5030316;28;20049;-67
2023/06/26 10:06:04;;;;;;;6.72;3.95;;;;;;;32.53;36.30;100650.22;5030453;28;20084;-66
2023/06/26 10:08:34;;;;;;;6.30;3.72;;;;;;;32.15;37.33;100644.88;5030865;28;20394;-67
2023/06/26 10:11:00;;;;;;;5.93;3.20;;;;;;;32.14;36.64;100645.19;5028945;28;20045;-68
2023/06/26 10:13:40;;;;;;;9.55;3.97;;;;;;;32.38;36.25;100647.75;5029973;28;20095;-68
2023/06/26 10:16:08;;;;;;;5.97;3.78;;;;;;;33.05;35.69;100645.22;5029735;28;20099;-68
2023/06/26 10:18:38;;;;;;;5.38;3.30;;;;;;;32.89;36.13;100641.09;5030340;28;20056;-66
2023/06/26 10:21:06;;;;;;;4.45;3.67;;;;;;;33.27;35.60;100626.88;5030030;28;20751;-67
2023/06/26 10:23:35;;;;;;;8.88;3.72;;;;;;;33.49;35.16;100624.16;5030124;28;20498;-62
2023/06/26 10:26:02;;;;;;;6.90;3.70;;;;;;;33.83;33.58;100626.31;5030607;28;20046;-65
2023/06/26 10:28:32;;;;;;;8.48;3.53;;;;;;;33.35;33.82;100623.38;5029518;28;20049;-66
2023/06/26 10:31:01;;;;;;;4.20;3.50;;;;;;;33.64;33.72;100605.41;5030438;28;20081;-66
2023/06/26 10:33:29;;;;;;;5.90;3.30;;;;;;;34.46;33.72;100610.34;5030526;28;20128;-68
2023/06/26 10:36:13;;;;;;;7.57;3.92;;;;;;;34.03;33.53;100608.22;5029754;28;20385;-67
2023/06/26 10:38:57;;;;;;;7.47;3.25;;;;;;;33.84;32.53;100604.84;5029538;28;20446;-67
2023/06/26 10:41:25;;;;;;;5.97;3.33;;;;;;;33.24;33.91;100610.84;5033255;28;20053;-70
2023/06/26 10:44:09;;;;;;;5.60;3.33;;;;;;;33.65;34.00;100601.47;5034021;28;20053;-67
2023/06/26 10:46:49;;;;;;;4.72;3.08;;;;;;;33.23;34.25;100600.88;5034020;28;20041;-67
2023/06/26 10:49:17;;;;;;;8.02;3.47;;;;;;;33.25;33.16;100601.38;5033876;28;20460;-69
2023/06/26 10:51:48;;;;;;;4.35;3.58;;;;;;;32.99;34.08;100595.63;5033270;28;20470;-66
2023/06/26 10:54:17;;;;;;;6.10;3.45;;;;;;;32.93;34.31;100594.06;5033681;28;20116;-69
2023/06/26 10:56:48;;;;;;;3.55;3.25;;;;;;;32.72;34.41;100596.50;5033497;28;20107;-67
2023/06/26 10:59:17;;;;;;;3.78;3.28;;;;;;;32.45;34.84;100587.09;5033241;28;20071;-67
2023/06/26 11:01:45;;;;;;;5.05;3.53;;;;;;;31.81;35.49;100586.13;5033171;28;20460;-67
2023/06/26 11:04:17;;;;;;;3.40;3.10;;;;;;;31.67;35.91;100577.81;5033637;28;20049;-67
2023/06/26 11:06:46;;;;;;;6.45;3.85;;;;;;;31.61;37.62;100590.13;5033507;28;20065;-68
2023/06/26 11:09:15;;;;;;;4.75;3.50;;;;;;;31.48;38.31;100580.63;5037277;28;20110;-67
2023/06/26 11:11:51;;;;;;;3.92;3.40;;;;;;;31.22;39.19;100572.75;5033472;28;20551;-66
2023/06/26 11:14:22;;;;;;;5.50;3.65;;;;;;;31.41;38.59;100581.03;5033021;28;20099;-68
2023/06/26 11:16:49;;;;;;;6.40;3.75;;;;;;;31.04;37.41;100581.91;5033555;28;20069;-68